sensor_id;sensor_type;location;lat;lon;timestamp;temperature;humidity
38428;DHT22;24211;49.980;19.776;2023-02-08T00:01:18;1.00;99.90
38428;DHT22;24211;49.980;19.776;2023-02-08T00:03:48;1.00;99.90
38428;DHT22;24211;49.980;19.776;2023-02-08T00:06:16;1.00;99.90
38428;DHT22;24211;49.980;19.776;2023-02-08T00:08:44;1.00;99.90
38428;DHT22;24211;49.980;19.776;2023-02-08T00:11:12;1.00;99.90
38428;DHT22;24211;49.980;19.776;2023-02-08T00:13:40;0.90;99.90
38428;DHT22;24211;49.980;19.776;2023-02-08T00:16:09;0.90;99.90
38428;DHT22;24211;49.980;19.776;2023-02-08T00:18:36;0.90;99.90
38428;DHT22;24211;49.980;19.776;2023-02-08T00:21:09;1.00;99.90
38428;DHT22;24211;49.980;19.776;2023-02-08T00:23:37;1.00;99.90
38428;DHT22;24211;49.980;19.776;2023-02-08T00:26:05;1.00;99.90
38428;DHT22;24211;49.980;19.776;2023-02-08T00:28:33;0.90;99.90
38428;DHT22;24211;49.980;19.776;2023-02-08T00:31:01;1.00;99.90
38428;DHT22;24211;49.980;19.776;2023-02-08T00:33:29;1.00;99.90
38428;DHT22;24211;49.980;19.776;2023-02-08T00:36:02;1.00;99.90
38428;DHT22;24211;49.980;19.776;2023-02-08T00:38:32;1.00;99.90
38428;DHT22;24211;49.980;19.776;2023-02-08T00:40:59;1.00;99.90
38428;DHT22;24211;49.980;19.776;2023-02-08T00:43:27;1.10;99.90
38428;DHT22;24211;49.980;19.776;2023-02-08T00:45:56;1.10;99.90
38428;DHT22;24211;49.980;19.776;2023-02-08T00:48:25;1.10;99.90
38428;DHT22;24211;49.980;19.776;2023-02-08T00:51:05;1.10;99.90
38428;DHT22;24211;49.980;19.776;2023-02-08T00:53:37;1.10;99.90
38428;DHT22;24211;49.980;19.776;2023-02-08T00:56:07;1.10;99.90
38428;DHT22;24211;49.980;19.776;2023-02-08T00:58:36;1.10;99.90
38428;DHT22;24211;49.980;19.776;2023-02-08T01:01:05;1.10;99.90
38428;DHT22;24211;49.980;19.776;2023-02-08T01:03:35;1.10;99.90
38428;DHT22;24211;49.980;19.776;2023-02-08T01:06:08;1.10;99.90
38428;DHT22;24211;49.980;19.776;2023-02-08T01:08:38;1.10;99.90
38428;DHT22;24211;49.980;19.776;2023-02-08T01:11:11;1.10;99.90
38428;DHT22;24211;49.980;19.776;2023-02-08T01:13:41;1.10;99.90
38428;DHT22;24211;49.980;19.776;2023-02-08T01:16:20;1.10;99.90
38428;DHT22;24211;49.980;19.776;2023-02-08T01:18:51;1.10;99.90
38428;DHT22;24211;49.980;19.776;2023-02-08T01:21:22;1.10;99.90
38428;DHT22;24211;49.980;19.776;2023-02-08T01:23:53;1.10;99.90
38428;DHT22;24211;49.980;19.776;2023-02-08T01:26:20;1.10;99.90
38428;DHT22;24211;49.980;19.776;2023-02-08T01:28:49;1.10;99.90
38428;DHT22;24211;49.980;19.776;2023-02-08T01:31:23;1.10;99.90
38428;DHT22;24211;49.980;19.776;2023-02-08T01:33:54;1.10;99.90
38428;DHT22;24211;49.980;19.776;2023-02-08T01:36:23;1.10;99.90
38428;DHT22;24211;49.980;19.776;2023-02-08T01:38:51;1.10;99.90
38428;DHT22;24211;49.980;19.776;2023-02-08T01:41:21;1.10;99.90
38428;DHT22;24211;49.980;19.776;2023-02-08T01:46:37;1.10;99.90
38428;DHT22;24211;49.980;19.776;2023-02-08T01:51:54;1.10;99.90
38428;DHT22;24211;49.980;19.776;2023-02-08T01:54:33;1.10;99.90
38428;DHT22;24211;49.980;19.776;2023-02-08T01:57:05;1.10;99.90
38428;DHT22;24211;49.980;19.776;2023-02-08T01:59:51;1.10;99.90
38428;DHT22;24211;49.980;19.776;2023-02-08T02:02:44;1.10;99.90
38428;DHT22;24211;49.980;19.776;2023-02-08T02:05:15;1.10;99.90
38428;DHT22;24211;49.980;19.776;2023-02-08T02:07:43;1.10;99.90
38428;DHT22;24211;49.980;19.776;2023-02-08T02:10:35;1.10;99.90
38428;DHT22;24211;49.980;19.776;2023-02-08T02:13:16;1.10;99.90
38428;DHT22;24211;49.980;19.776;2023-02-08T02:15:47;1.10;99.90
38428;DHT22;24211;49.980;19.776;2023-02-08T02:18:26;1.10;99.90
38428;DHT22;24211;49.980;19.776;2023-02-08T02:38:31;1.20;99.90
38428;DHT22;24211;49.980;19.776;2023-02-08T02:41:18;1.20;99.90
38428;DHT22;24211;49.980;19.776;2023-02-08T02:44:38;1.20;99.90
38428;DHT22;24211;49.980;19.776;2023-02-08T02:47:22;1.20;99.90
38428;DHT22;24211;49.980;19.776;2023-02-08T02:50:28;1.20;99.90
38428;DHT22;24211;49.980;19.776;2023-02-08T02:53:04;1.20;99.90
38428;DHT22;24211;49.980;19.776;2023-02-08T02:55:41;1.20;99.90
38428;DHT22;24211;49.980;19.776;2023-02-08T02:58:17;1.20;99.90
38428;DHT22;24211;49.980;19.776;2023-02-08T03:00:56;1.20;99.90
38428;DHT22;24211;49.980;19.776;2023-02-08T03:03:27;1.20;99.90
38428;DHT22;24211;49.980;19.776;2023-02-08T03:06:02;1.20;99.90
38428;DHT22;24211;49.980;19.776;2023-02-08T03:11:34;1.30;99.90
38428;DHT22;24211;49.980;19.776;2023-02-08T03:20:06;1.30;99.90
38428;DHT22;24211;49.980;19.776;2023-02-08T03:23:19;1.30;99.90
38428;DHT22;24211;49.980;19.776;2023-02-08T03:28:49;1.30;99.90
38428;DHT22;24211;49.980;19.776;2023-02-08T03:31:58;1.30;99.90
38428;DHT22;24211;49.980;19.776;2023-02-08T03:34:42;1.30;99.90
38428;DHT22;24211;49.980;19.776;2023-02-08T03:37:21;1.30;99.90
38428;DHT22;24211;49.980;19.776;2023-02-08T03:40:00;1.30;99.90
38428;DHT22;24211;49.980;19.776;2023-02-08T03:42:34;1.30;99.90
38428;DHT22;24211;49.980;19.776;2023-02-08T03:45:21;1.30;99.90
38428;DHT22;24211;49.980;19.776;2023-02-08T03:47:53;1.30;99.90
38428;DHT22;24211;49.980;19.776;2023-02-08T03:50:26;1.30;99.90
38428;DHT22;24211;49.980;19.776;2023-02-08T03:52:56;1.30;99.90
38428;DHT22;24211;49.980;19.776;2023-02-08T03:55:27;1.30;99.90
38428;DHT22;24211;49.980;19.776;2023-02-08T03:58:27;1.30;99.90
38428;DHT22;24211;49.980;19.776;2023-02-08T04:01:09;1.30;99.90
38428;DHT22;24211;49.980;19.776;2023-02-08T04:03:43;1.40;99.90
38428;DHT22;24211;49.980;19.776;2023-02-08T04:06:16;1.40;99.90
38428;DHT22;24211;49.980;19.776;2023-02-08T04:08:44;1.30;99.90
38428;DHT22;24211;49.980;19.776;2023-02-08T04:11:12;1.30;99.90
38428;DHT22;24211;49.980;19.776;2023-02-08T04:13:39;1.40;99.90
38428;DHT22;24211;49.980;19.776;2023-02-08T04:16:09;1.40;99.90
38428;DHT22;24211;49.980;19.776;2023-02-08T04:18:38;1.40;99.90
38428;DHT22;24211;49.980;19.776;2023-02-08T04:21:05;1.40;99.90
38428;DHT22;24211;49.980;19.776;2023-02-08T04:23:32;1.40;99.90
38428;DHT22;24211;49.980;19.776;2023-02-08T04:26:00;1.40;99.90
38428;DHT22;24211;49.980;19.776;2023-02-08T04:28:27;1.40;99.90
38428;DHT22;24211;49.980;19.776;2023-02-08T04:30:55;1.40;99.90
38428;DHT22;24211;49.980;19.776;2023-02-08T04:33:25;1.40;99.90
38428;DHT22;24211;49.980;19.776;2023-02-08T04:35:52;1.40;99.90
38428;DHT22;24211;49.980;19.776;2023-02-08T04:38:20;1.40;99.90
38428;DHT22;24211;49.980;19.776;2023-02-08T04:40:47;1.40;99.90
38428;DHT22;24211;49.980;19.776;2023-02-08T04:43:14;1.40;99.90
38428;DHT22;24211;49.980;19.776;2023-02-08T04:45:42;1.40;99.90
38428;DHT22;24211;49.980;19.776;2023-02-08T04:48:10;1.40;99.90
38428;DHT22;24211;49.980;19.776;2023-02-08T04:50:38;1.50;99.90
38428;DHT22;24211;49.980;19.776;2023-02-08T04:53:05;1.50;99.90
38428;DHT22;24211;49.980;19.776;2023-02-08T04:55:33;1.40;99.90
38428;DHT22;24211;49.980;19.776;2023-02-08T04:58:01;1.40;99.90
38428;DHT22;24211;49.980;19.776;2023-02-08T05:00:29;1.40;99.90
38428;DHT22;24211;49.980;19.776;2023-02-08T05:02:57;1.40;99.90
38428;DHT22;24211;49.980;19.776;2023-02-08T05:05:26;1.50;99.90
38428;DHT22;24211;49.980;19.776;2023-02-08T05:07:54;1.40;99.90
38428;DHT22;24211;49.980;19.776;2023-02-08T05:10:21;1.40;99.90
38428;DHT22;24211;49.980;19.776;2023-02-08T05:12:49;1.40;99.90
38428;DHT22;24211;49.980;19.776;2023-02-08T05:15:17;1.40;99.90
38428;DHT22;24211;49.980;19.776;2023-02-08T05:17:44;1.50;99.90
38428;DHT22;24211;49.980;19.776;2023-02-08T05:20:12;1.50;99.90
38428;DHT22;24211;49.980;19.776;2023-02-08T05:22:39;1.50;99.90
38428;DHT22;24211;49.980;19.776;2023-02-08T05:25:07;1.40;99.90
38428;DHT22;24211;49.980;19.776;2023-02-08T05:27:35;1.50;99.90
38428;DHT22;24211;49.980;19.776;2023-02-08T05:30:03;1.50;99.90
38428;DHT22;24211;49.980;19.776;2023-02-08T05:32:31;1.40;99.90
38428;DHT22;24211;49.980;19.776;2023-02-08T05:34:58;1.50;99.90
38428;DHT22;24211;49.980;19.776;2023-02-08T05:37:26;1.40;99.90
38428;DHT22;24211;49.980;19.776;2023-02-08T05:39:53;1.50;99.90
38428;DHT22;24211;49.980;19.776;2023-02-08T05:42:20;1.50;99.90
38428;DHT22;24211;49.980;19.776;2023-02-08T05:44:48;1.50;99.90
38428;DHT22;24211;49.980;19.776;2023-02-08T05:47:15;1.40;99.90
38428;DHT22;24211;49.980;19.776;2023-02-08T05:49:42;1.40;99.90
38428;DHT22;24211;49.980;19.776;2023-02-08T05:52:09;1.20;99.90
38428;DHT22;24211;49.980;19.776;2023-02-08T05:54:37;1.20;99.90
38428;DHT22;24211;49.980;19.776;2023-02-08T05:57:04;1.30;99.90
38428;DHT22;24211;49.980;19.776;2023-02-08T05:59:32;1.10;99.90
38428;DHT22;24211;49.980;19.776;2023-02-08T06:01:59;1.20;99.90
38428;DHT22;24211;49.980;19.776;2023-02-08T06:04:27;1.30;99.90
38428;DHT22;24211;49.980;19.776;2023-02-08T06:06:54;1.20;99.90
38428;DHT22;24211;49.980;19.776;2023-02-08T06:09:21;1.20;99.90
38428;DHT22;24211;49.980;19.776;2023-02-08T06:11:48;1.30;99.90
38428;DHT22;24211;49.980;19.776;2023-02-08T06:14:16;1.20;99.90
38428;DHT22;24211;49.980;19.776;2023-02-08T06:16:43;1.10;99.90
38428;DHT22;24211;49.980;19.776;2023-02-08T06:19:11;1.20;99.90
38428;DHT22;24211;49.980;19.776;2023-02-08T06:21:39;1.20;99.90
38428;DHT22;24211;49.980;19.776;2023-02-08T06:24:08;1.20;99.90
38428;DHT22;24211;49.980;19.776;2023-02-08T06:26:37;1.30;99.90
38428;DHT22;24211;49.980;19.776;2023-02-08T06:29:04;1.30;99.90
38428;DHT22;24211;49.980;19.776;2023-02-08T06:31:31;1.40;99.90
38428;DHT22;24211;49.980;19.776;2023-02-08T06:34:00;1.40;99.90
38428;DHT22;24211;49.980;19.776;2023-02-08T06:36:27;1.40;99.90
38428;DHT22;24211;49.980;19.776;2023-02-08T06:38:55;1.40;99.90
38428;DHT22;24211;49.980;19.776;2023-02-08T06:41:22;1.40;99.90
38428;DHT22;24211;49.980;19.776;2023-02-08T06:43:49;1.40;99.90
38428;DHT22;24211;49.980;19.776;2023-02-08T06:46:17;1.40;99.90
38428;DHT22;24211;49.980;19.776;2023-02-08T06:48:44;1.40;99.90
38428;DHT22;24211;49.980;19.776;2023-02-08T06:51:11;1.50;99.90
38428;DHT22;24211;49.980;19.776;2023-02-08T06:53:39;1.40;99.90
38428;DHT22;24211;49.980;19.776;2023-02-08T06:56:06;1.40;99.90
38428;DHT22;24211;49.980;19.776;2023-02-08T06:58:34;1.40;99.90
38428;DHT22;24211;49.980;19.776;2023-02-08T07:01:01;1.40;99.90
38428;DHT22;24211;49.980;19.776;2023-02-08T07:03:28;1.40;99.90
38428;DHT22;24211;49.980;19.776;2023-02-08T07:05:55;1.40;99.90
38428;DHT22;24211;49.980;19.776;2023-02-08T07:08:33;1.40;99.90
38428;DHT22;24211;49.980;19.776;2023-02-08T07:11:05;1.40;99.90
38428;DHT22;24211;49.980;19.776;2023-02-08T07:13:37;1.40;99.90
38428;DHT22;24211;49.980;19.776;2023-02-08T07:16:05;1.40;99.90
38428;DHT22;24211;49.980;19.776;2023-02-08T07:18:35;1.40;99.90
38428;DHT22;24211;49.980;19.776;2023-02-08T07:21:03;1.40;99.90
38428;DHT22;24211;49.980;19.776;2023-02-08T07:23:31;1.40;99.90
38428;DHT22;24211;49.980;19.776;2023-02-08T07:26:03;1.40;99.90
38428;DHT22;24211;49.980;19.776;2023-02-08T07:28:41;1.50;99.90
38428;DHT22;24211;49.980;19.776;2023-02-08T07:31:14;1.50;99.90
38428;DHT22;24211;49.980;19.776;2023-02-08T07:33:43;1.50;99.90
38428;DHT22;24211;49.980;19.776;2023-02-08T07:36:11;1.50;99.90
38428;DHT22;24211;49.980;19.776;2023-02-08T07:38:38;1.50;99.90
38428;DHT22;24211;49.980;19.776;2023-02-08T07:41:08;1.50;99.90
38428;DHT22;24211;49.980;19.776;2023-02-08T07:43:39;1.50;99.90
38428;DHT22;24211;49.980;19.776;2023-02-08T07:48:42;1.40;99.90
38428;DHT22;24211;49.980;19.776;2023-02-08T07:51:11;1.10;99.90
38428;DHT22;24211;49.980;19.776;2023-02-08T07:53:39;0.90;99.90
38428;DHT22;24211;49.980;19.776;2023-02-08T07:56:06;0.60;99.90
38428;DHT22;24211;49.980;19.776;2023-02-08T07:58:36;0.30;99.90
38428;DHT22;24211;49.980;19.776;2023-02-08T08:01:04;0.50;99.90
38428;DHT22;24211;49.980;19.776;2023-02-08T08:03:49;0.50;99.90
38428;DHT22;24211;49.980;19.776;2023-02-08T08:06:18;0.30;99.90
38428;DHT22;24211;49.980;19.776;2023-02-08T08:08:47;0.20;99.90
38428;DHT22;24211;49.980;19.776;2023-02-08T08:11:15;0.40;99.90
38428;DHT22;24211;49.980;19.776;2023-02-08T08:13:44;0.70;99.90
38428;DHT22;24211;49.980;19.776;2023-02-08T08:16:12;0.50;99.90
38428;DHT22;24211;49.980;19.776;2023-02-08T08:18:39;0.50;99.90
38428;DHT22;24211;49.980;19.776;2023-02-08T08:21:07;0.40;99.90
38428;DHT22;24211;49.980;19.776;2023-02-08T08:23:35;0.50;99.90
38428;DHT22;24211;49.980;19.776;2023-02-08T08:26:08;0.50;99.90
38428;DHT22;24211;49.980;19.776;2023-02-08T08:28:42;0.40;99.90
38428;DHT22;24211;49.980;19.776;2023-02-08T08:31:18;0.40;99.90
38428;DHT22;24211;49.980;19.776;2023-02-08T08:33:47;0.30;99.90
38428;DHT22;24211;49.980;19.776;2023-02-08T08:36:15;0.30;99.90
38428;DHT22;24211;49.980;19.776;2023-02-08T08:38:42;0.60;99.90
38428;DHT22;24211;49.980;19.776;2023-02-08T08:41:12;0.60;99.90
38428;DHT22;24211;49.980;19.776;2023-02-08T08:43:43;0.40;99.90
38428;DHT22;24211;49.980;19.776;2023-02-08T08:46:11;0.30;99.90
38428;DHT22;24211;49.980;19.776;2023-02-08T08:48:39;0.30;99.90
38428;DHT22;24211;49.980;19.776;2023-02-08T08:51:06;0.30;99.90
38428;DHT22;24211;49.980;19.776;2023-02-08T08:53:34;0.10;99.90
38428;DHT22;24211;49.980;19.776;2023-02-08T08:56:03;0.10;99.90
38428;DHT22;24211;49.980;19.776;2023-02-08T08:58:32;0.20;99.90
38428;DHT22;24211;49.980;19.776;2023-02-08T09:00:59;0.20;99.90
38428;DHT22;24211;49.980;19.776;2023-02-08T09:03:28;0.10;99.90
38428;DHT22;24211;49.980;19.776;2023-02-08T09:05:55;0.10;99.90
38428;DHT22;24211;49.980;19.776;2023-02-08T09:08:23;0.10;99.90
38428;DHT22;24211;49.980;19.776;2023-02-08T09:10:50;0.20;99.90
38428;DHT22;24211;49.980;19.776;2023-02-08T09:13:18;0.10;99.90
38428;DHT22;24211;49.980;19.776;2023-02-08T09:15:47;0.10;99.90
38428;DHT22;24211;49.980;19.776;2023-02-08T09:18:15;0.10;99.90
38428;DHT22;24211;49.980;19.776;2023-02-08T09:20:42;0.10;99.90
38428;DHT22;24211;49.980;19.776;2023-02-08T09:23:11;0.10;99.90
38428;DHT22;24211;49.980;19.776;2023-02-08T09:25:40;0.20;99.90
38428;DHT22;24211;49.980;19.776;2023-02-08T09:28:07;0.20;99.90
38428;DHT22;24211;49.980;19.776;2023-02-08T09:30:35;0.20;99.90
38428;DHT22;24211;49.980;19.776;2023-02-08T09:33:02;0.20;99.90
38428;DHT22;24211;49.980;19.776;2023-02-08T09:35:30;0.20;99.90
38428;DHT22;24211;49.980;19.776;2023-02-08T09:37:57;0.30;99.90
38428;DHT22;24211;49.980;19.776;2023-02-08T09:40:38;0.40;99.90
38428;DHT22;24211;49.980;19.776;2023-02-08T09:43:23;0.30;99.90
38428;DHT22;24211;49.980;19.776;2023-02-08T09:46:07;0.40;99.90
38428;DHT22;24211;49.980;19.776;2023-02-08T09:48:42;0.50;99.90
38428;DHT22;24211;49.980;19.776;2023-02-08T09:51:31;0.50;99.90
38428;DHT22;24211;49.980;19.776;2023-02-08T09:56:48;0.60;99.90
38428;DHT22;24211;49.980;19.776;2023-02-08T09:59:23;0.60;99.90
38428;DHT22;24211;49.980;19.776;2023-02-08T10:02:03;0.70;99.90
38428;DHT22;24211;49.980;19.776;2023-02-08T10:07:26;0.90;99.90
38428;DHT22;24211;49.980;19.776;2023-02-08T10:09:57;0.90;99.90
38428;DHT22;24211;49.980;19.776;2023-02-08T10:12:53;0.80;99.90
38428;DHT22;24211;49.980;19.776;2023-02-08T10:18:36;0.90;99.90
38428;DHT22;24211;49.980;19.776;2023-02-08T10:21:28;1.00;99.90
38428;DHT22;24211;49.980;19.776;2023-02-08T10:35:44;1.20;99.90
38428;DHT22;24211;49.980;19.776;2023-02-08T10:38:29;1.20;99.90
38428;DHT22;24211;49.980;19.776;2023-02-08T10:41:33;1.10;99.90
38428;DHT22;24211;49.980;19.776;2023-02-08T10:46:46;1.20;99.90
38428;DHT22;24211;49.980;19.776;2023-02-08T10:49:26;1.40;99.90
38428;DHT22;24211;49.980;19.776;2023-02-08T10:52:06;1.40;99.90
38428;DHT22;24211;49.980;19.776;2023-02-08T10:54:35;1.50;99.90
38428;DHT22;24211;49.980;19.776;2023-02-08T10:57:08;1.50;99.90
38428;DHT22;24211;49.980;19.776;2023-02-08T10:59:55;1.50;99.90
38428;DHT22;24211;49.980;19.776;2023-02-08T11:02:40;1.60;99.90
38428;DHT22;24211;49.980;19.776;2023-02-08T11:05:20;1.70;99.90
38428;DHT22;24211;49.980;19.776;2023-02-08T11:08:09;1.80;99.90
38428;DHT22;24211;49.980;19.776;2023-02-08T11:11:04;1.90;99.90
38428;DHT22;24211;49.980;19.776;2023-02-08T11:16:20;2.00;99.90
38428;DHT22;24211;49.980;19.776;2023-02-08T11:18:57;2.10;99.90
38428;DHT22;24211;49.980;19.776;2023-02-08T11:21:33;2.10;99.90
38428;DHT22;24211;49.980;19.776;2023-02-08T11:27:30;2.20;99.90
38428;DHT22;24211;49.980;19.776;2023-02-08T11:32:48;2.30;99.90
38428;DHT22;24211;49.980;19.776;2023-02-08T11:35:39;2.30;99.90
38428;DHT22;24211;49.980;19.776;2023-02-08T11:38:17;2.30;99.90
38428;DHT22;24211;49.980;19.776;2023-02-08T11:40:47;2.40;99.90
38428;DHT22;24211;49.980;19.776;2023-02-08T11:43:29;2.50;99.90
38428;DHT22;24211;49.980;19.776;2023-02-08T11:46:02;2.60;99.90
38428;DHT22;24211;49.980;19.776;2023-02-08T11:48:43;2.60;99.90
38428;DHT22;24211;49.980;19.776;2023-02-08T11:51:27;2.80;99.90
38428;DHT22;24211;49.980;19.776;2023-02-08T11:54:02;2.80;99.90
38428;DHT22;24211;49.980;19.776;2023-02-08T11:56:33;2.80;99.90
38428;DHT22;24211;49.980;19.776;2023-02-08T12:01:40;2.70;99.90
38428;DHT22;24211;49.980;19.776;2023-02-08T12:04:15;2.80;99.90
38428;DHT22;24211;49.980;19.776;2023-02-08T12:07:03;2.80;99.90
38428;DHT22;24211;49.980;19.776;2023-02-08T12:10:02;2.70;99.90
38428;DHT22;24211;49.980;19.776;2023-02-08T12:21:42;2.20;99.90
38428;DHT22;24211;49.980;19.776;2023-02-08T12:25:01;2.10;99.90
38428;DHT22;24211;49.980;19.776;2023-02-08T12:27:37;2.10;99.90
38428;DHT22;24211;49.980;19.776;2023-02-08T12:37:02;2.00;99.90
38428;DHT22;24211;49.980;19.776;2023-02-08T12:49:06;1.80;99.90
38428;DHT22;24211;49.980;19.776;2023-02-08T12:55:05;1.90;99.90
38428;DHT22;24211;49.980;19.776;2023-02-08T12:57:43;1.90;99.90
38428;DHT22;24211;49.980;19.776;2023-02-08T13:00:27;1.90;99.90
38428;DHT22;24211;49.980;19.776;2023-02-08T13:03:16;1.90;99.90
38428;DHT22;24211;49.980;19.776;2023-02-08T13:05:48;2.00;99.90
38428;DHT22;24211;49.980;19.776;2023-02-08T13:08:58;2.00;99.90
38428;DHT22;24211;49.980;19.776;2023-02-08T13:11:38;2.10;99.90
38428;DHT22;24211;49.980;19.776;2023-02-08T13:14:39;2.30;99.90
38428;DHT22;24211;49.980;19.776;2023-02-08T13:17:20;2.20;99.90
38428;DHT22;24211;49.980;19.776;2023-02-08T13:20:35;2.20;99.90
38428;DHT22;24211;49.980;19.776;2023-02-08T13:23:28;2.00;99.90
38428;DHT22;24211;49.980;19.776;2023-02-08T13:26:28;2.00;99.90
38428;DHT22;24211;49.980;19.776;2023-02-08T13:29:01;2.00;99.90
38428;DHT22;24211;49.980;19.776;2023-02-08T13:31:36;2.00;99.90
38428;DHT22;24211;49.980;19.776;2023-02-08T13:34:32;2.10;99.90
38428;DHT22;24211;49.980;19.776;2023-02-08T13:37:21;2.10;99.90
38428;DHT22;24211;49.980;19.776;2023-02-08T13:40:20;2.00;99.90
38428;DHT22;24211;49.980;19.776;2023-02-08T13:43:48;2.00;99.90
38428;DHT22;24211;49.980;19.776;2023-02-08T13:46:12;2.10;99.90
38428;DHT22;24211;49.980;19.776;2023-02-08T13:48:46;2.30;99.90
38428;DHT22;24211;49.980;19.776;2023-02-08T13:59:31;2.00;99.90
38428;DHT22;24211;49.980;19.776;2023-02-08T14:04:46;2.10;99.90
38428;DHT22;24211;49.980;19.776;2023-02-08T14:07:46;2.00;99.90
38428;DHT22;24211;49.980;19.776;2023-02-08T14:14:03;2.00;99.90
38428;DHT22;24211;49.980;19.776;2023-02-08T14:16:37;2.00;99.90
38428;DHT22;24211;49.980;19.776;2023-02-08T14:21:59;1.80;99.90
38428;DHT22;24211;49.980;19.776;2023-02-08T14:24:40;1.90;99.90
38428;DHT22;24211;49.980;19.776;2023-02-08T14:27:20;2.00;99.90
38428;DHT22;24211;49.980;19.776;2023-02-08T14:30:22;1.80;99.90
38428;DHT22;24211;49.980;19.776;2023-02-08T14:33:15;1.80;99.90
38428;DHT22;24211;49.980;19.776;2023-02-08T14:35:53;1.90;99.90
38428;DHT22;24211;49.980;19.776;2023-02-08T14:40:54;1.80;99.90
38428;DHT22;24211;49.980;19.776;2023-02-08T14:43:34;1.70;99.90
38428;DHT22;24211;49.980;19.776;2023-02-08T14:49:12;1.80;99.90
38428;DHT22;24211;49.980;19.776;2023-02-08T14:51:49;1.70;99.90
38428;DHT22;24211;49.980;19.776;2023-02-08T14:54:43;1.90;99.90
38428;DHT22;24211;49.980;19.776;2023-02-08T15:00:00;2.30;99.90
38428;DHT22;24211;49.980;19.776;2023-02-08T15:02:31;2.40;99.90
38428;DHT22;24211;49.980;19.776;2023-02-08T15:05:02;2.60;99.90
38428;DHT22;24211;49.980;19.776;2023-02-08T15:07:53;2.50;99.90
38428;DHT22;24211;49.980;19.776;2023-02-08T15:10:25;2.10;99.90
38428;DHT22;24211;49.980;19.776;2023-02-08T15:12:58;2.10;99.90
38428;DHT22;24211;49.980;19.776;2023-02-08T15:15:40;2.10;99.90
38428;DHT22;24211;49.980;19.776;2023-02-08T15:18:29;2.20;99.90
38428;DHT22;24211;49.980;19.776;2023-02-08T15:21:03;1.90;99.90
38428;DHT22;24211;49.980;19.776;2023-02-08T15:23:41;1.80;99.90
38428;DHT22;24211;49.980;19.776;2023-02-08T15:26:22;1.90;99.90
38428;DHT22;24211;49.980;19.776;2023-02-08T15:28:49;1.80;99.90
38428;DHT22;24211;49.980;19.776;2023-02-08T15:31:20;1.80;99.90
38428;DHT22;24211;49.980;19.776;2023-02-08T15:33:52;1.70;99.90
38428;DHT22;24211;49.980;19.776;2023-02-08T15:39:08;2.00;99.90
38428;DHT22;24211;49.980;19.776;2023-02-08T15:41:55;1.70;99.90
38428;DHT22;24211;49.980;19.776;2023-02-08T15:44:27;1.50;99.90
38428;DHT22;24211;49.980;19.776;2023-02-08T15:46:59;1.60;99.90
38428;DHT22;24211;49.980;19.776;2023-02-08T15:49:34;1.20;99.90
38428;DHT22;24211;49.980;19.776;2023-02-08T15:52:06;1.20;99.90
38428;DHT22;24211;49.980;19.776;2023-02-08T15:54:34;1.20;99.90
38428;DHT22;24211;49.980;19.776;2023-02-08T15:59:44;1.20;99.90
38428;DHT22;24211;49.980;19.776;2023-02-08T16:02:28;1.30;99.90
38428;DHT22;24211;49.980;19.776;2023-02-08T16:04:59;1.40;99.90
38428;DHT22;24211;49.980;19.776;2023-02-08T16:07:38;1.30;99.90
38428;DHT22;24211;49.980;19.776;2023-02-08T16:13:15;1.00;99.90
38428;DHT22;24211;49.980;19.776;2023-02-08T16:15:53;0.80;99.90
38428;DHT22;24211;49.980;19.776;2023-02-08T16:18:38;0.80;99.90
38428;DHT22;24211;49.980;19.776;2023-02-08T16:24:18;0.90;99.90
38428;DHT22;24211;49.980;19.776;2023-02-08T16:27:00;1.00;99.90
38428;DHT22;24211;49.980;19.776;2023-02-08T16:29:35;1.40;99.90
38428;DHT22;24211;49.980;19.776;2023-02-08T16:32:06;1.50;99.90
38428;DHT22;24211;49.980;19.776;2023-02-08T16:34:44;1.60;99.90
38428;DHT22;24211;49.980;19.776;2023-02-08T16:37:30;1.30;99.90
38428;DHT22;24211;49.980;19.776;2023-02-08T16:40:48;1.20;99.90
38428;DHT22;24211;49.980;19.776;2023-02-08T16:46:15;1.50;99.90
38428;DHT22;24211;49.980;19.776;2023-02-08T16:48:51;2.00;99.90
38428;DHT22;24211;49.980;19.776;2023-02-08T16:51:32;2.10;99.90
38428;DHT22;24211;49.980;19.776;2023-02-08T16:54:06;2.30;99.90
38428;DHT22;24211;49.980;19.776;2023-02-08T16:56:37;2.50;99.90
38428;DHT22;24211;49.980;19.776;2023-02-08T16:59:06;2.70;99.90
38428;DHT22;24211;49.980;19.776;2023-02-08T17:01:34;2.70;99.90
38428;DHT22;24211;49.980;19.776;2023-02-08T17:04:02;2.70;99.90
38428;DHT22;24211;49.980;19.776;2023-02-08T17:06:30;2.70;99.90
38428;DHT22;24211;49.980;19.776;2023-02-08T17:09:01;2.70;99.90
38428;DHT22;24211;49.980;19.776;2023-02-08T17:11:30;2.70;99.90
38428;DHT22;24211;49.980;19.776;2023-02-08T17:13:58;2.70;99.90
38428;DHT22;24211;49.980;19.776;2023-02-08T17:16:28;2.70;99.90
38428;DHT22;24211;49.980;19.776;2023-02-08T17:18:57;2.60;99.90
38428;DHT22;24211;49.980;19.776;2023-02-08T17:21:26;2.60;99.90
38428;DHT22;24211;49.980;19.776;2023-02-08T17:23:55;2.60;99.90
38428;DHT22;24211;49.980;19.776;2023-02-08T17:26:42;2.60;99.90
38428;DHT22;24211;49.980;19.776;2023-02-08T17:29:11;2.60;99.90
38428;DHT22;24211;49.980;19.776;2023-02-08T17:31:38;2.60;99.90
38428;DHT22;24211;49.980;19.776;2023-02-08T17:34:07;2.60;99.90
38428;DHT22;24211;49.980;19.776;2023-02-08T17:36:35;2.60;99.90
38428;DHT22;24211;49.980;19.776;2023-02-08T17:39:04;2.60;99.90
38428;DHT22;24211;49.980;19.776;2023-02-08T17:41:31;2.50;99.90
38428;DHT22;24211;49.980;19.776;2023-02-08T17:43:59;2.50;99.90
38428;DHT22;24211;49.980;19.776;2023-02-08T17:46:28;2.50;99.90
38428;DHT22;24211;49.980;19.776;2023-02-08T17:48:59;2.50;99.90
38428;DHT22;24211;49.980;19.776;2023-02-08T17:51:27;2.50;99.90
38428;DHT22;24211;49.980;19.776;2023-02-08T17:53:55;2.60;99.90
38428;DHT22;24211;49.980;19.776;2023-02-08T17:56:24;2.60;99.90
38428;DHT22;24211;49.980;19.776;2023-02-08T17:58:54;2.60;99.90
38428;DHT22;24211;49.980;19.776;2023-02-08T18:01:24;2.50;99.90
38428;DHT22;24211;49.980;19.776;2023-02-08T18:03:53;2.50;99.90
38428;DHT22;24211;49.980;19.776;2023-02-08T18:06:22;2.60;99.90
38428;DHT22;24211;49.980;19.776;2023-02-08T18:08:52;2.50;99.90
38428;DHT22;24211;49.980;19.776;2023-02-08T18:11:19;2.60;99.90
38428;DHT22;24211;49.980;19.776;2023-02-08T18:13:51;2.50;99.90
38428;DHT22;24211;49.980;19.776;2023-02-08T18:18:58;2.50;99.90
38428;DHT22;24211;49.980;19.776;2023-02-08T18:21:27;2.40;99.90
38428;DHT22;24211;49.980;19.776;2023-02-08T18:24:01;2.40;99.90
38428;DHT22;24211;49.980;19.776;2023-02-08T18:26:32;2.40;99.90
38428;DHT22;24211;49.980;19.776;2023-02-08T18:29:00;2.40;99.90
38428;DHT22;24211;49.980;19.776;2023-02-08T18:31:28;2.40;99.90
38428;DHT22;24211;49.980;19.776;2023-02-08T18:33:56;2.40;99.90
38428;DHT22;24211;49.980;19.776;2023-02-08T18:36:23;2.30;99.90